Time;durP1;ratioP1;P1;durP2;ratioP2;P2;SDS_P1;SDS_P2;PMS_P1;PMS_P2;Temp;Humidity;BMP_temperature;BMP_pressure;BME280_temperature;BME280_humidity;BME280_pressure;Samples;Min_cycle;Max_cycle;Signal;HPM_P1;HPM_P2
2022/11/05 07:29:50;;;;;;;4.00;2.78;;;10.60;99.90;;;;;;4939931;23;20041;-86
2022/11/05 07:32:16;;;;;;;3.67;2.72;;;10.60;99.90;;;;;;4881810;29;20053;-84
2022/11/05 07:34:43;;;;;;;5.50;3.33;;;10.60;99.90;;;;;;4879118;29;20053;-82
2022/11/05 07:37:10;;;;;;;7.07;4.22;;;10.60;99.90;;;;;;4878379;29;20053;-82
2022/11/05 07:39:37;;;;;;;3.95;2.70;;;10.50;99.90;;;;;;4867807;29;20057;-84
2022/11/05 07:42:03;;;;;;;5.03;2.65;;;10.50;99.90;;;;;;4885234;29;20063;-80
2022/11/05 07:44:30;;;;;;;3.50;2.88;;;10.50;99.90;;;;;;4884950;29;20414;-83
2022/11/05 07:46:57;;;;;;;4.40;2.85;;;10.50;99.90;;;;;;4883281;29;20132;-82
2022/11/05 07:49:25;;;;;;;2.70;2.28;;;10.50;99.90;;;;;;4889826;29;20121;-82
2022/11/05 07:51:52;;;;;;;2.83;2.40;;;10.40;99.90;;;;;;4891336;29;20080;-82
2022/11/05 07:54:20;;;;;;;3.22;2.05;;;10.50;99.90;;;;;;4891873;29;20048;-81
2022/11/05 07:56:47;;;;;;;3.17;2.13;;;10.50;99.90;;;;;;4893545;29;20061;-83
2022/11/05 07:59:14;;;;;;;6.95;2.13;;;10.50;99.90;;;;;;4891090;29;20502;-83
2022/11/05 08:01:41;;;;;;;3.95;2.72;;;10.50;99.90;;;;;;4889968;29;20055;-82
2022/11/05 08:04:09;;;;;;;5.75;4.63;;;10.60;99.90;;;;;;4889037;29;20060;-82
2022/11/05 08:06:36;;;;;;;5.40;3.65;;;10.60;99.90;;;;;;4888193;29;20071;-84
2022/11/05 08:09:04;;;;;;;7.00;3.70;;;10.60;99.90;;;;;;4888463;29;20068;-83
2022/11/05 08:11:31;;;;;;;6.30;4.68;;;10.60;99.90;;;;;;4893176;29;20055;-83
2022/11/05 08:13:58;;;;;;;6.13;4.55;;;10.60;99.90;;;;;;4888442;29;20135;-86
2022/11/05 08:16:25;;;;;;;6.47;4.72;;;10.60;99.90;;;;;;4888915;29;20096;-83
2022/11/05 08:18:52;;;;;;;6.93;4.90;;;10.60;99.90;;;;;;4891481;29;20091;-84
2022/11/05 08:21:20;;;;;;;7.32;5.38;;;10.60;99.90;;;;;;4886662;29;20060;-82
2022/11/05 08:23:47;;;;;;;8.43;5.97;;;10.60;99.90;;;;;;4889028;29;20049;-84
2022/11/05 08:26:14;;;;;;;9.38;5.88;;;10.60;99.90;;;;;;4894343;29;20080;-83
2022/11/05 08:28:41;;;;;;;5.28;4.28;;;10.70;99.90;;;;;;4889492;29;20117;-84
2022/11/05 08:31:09;;;;;;;7.28;5.20;;;10.80;99.90;;;;;;4891346;29;20076;-82
2022/11/05 08:33:36;;;;;;;7.05;4.88;;;10.80;99.90;;;;;;4878205;29;20054;-83
2022/11/05 08:36:04;;;;;;;6.60;5.85;;;10.90;99.90;;;;;;4881458;29;20145;-83
2022/11/05 08:38:31;;;;;;;8.52;5.20;;;11.00;99.90;;;;;;4888067;29;20080;-85
2022/11/05 08:40:59;;;;;;;5.18;4.18;;;11.00;99.90;;;;;;4883017;29;20053;-84
2022/11/05 08:43:26;;;;;;;6.05;4.32;;;11.20;99.90;;;;;;4885492;29;20088;-85
2022/11/05 08:45:54;;;;;;;5.55;4.63;;;11.30;99.90;;;;;;4884137;29;20120;-82
2022/11/05 08:48:21;;;;;;;10.98;4.13;;;11.40;99.90;;;;;;4886425;29;20055;-84
2022/11/05 08:50:48;;;;;;;6.03;4.22;;;11.40;99.90;;;;;;4885705;29;20112;-85
2022/11/05 08:53:16;;;;;;;5.22;3.30;;;11.40;99.90;;;;;;4880244;29;20084;-83
2022/11/05 08:55:46;;;;;;;4.05;3.33;;;11.30;99.90;;;;;;4881505;29;20057;-83
2022/11/05 08:58:15;;;;;;;7.55;3.50;;;11.30;99.90;;;;;;4881854;29;20555;-83
2022/11/05 09:00:45;;;;;;;5.60;3.03;;;11.30;99.90;;;;;;4883945;29;20071;-83
2022/11/05 09:03:13;;;;;;;4.38;3.40;;;11.30;99.90;;;;;;4883783;29;20427;-83
2022/11/05 09:05:41;;;;;;;7.70;3.60;;;11.40;99.90;;;;;;4887127;29;20053;-84
2022/11/05 09:08:11;;;;;;;7.10;3.95;;;11.30;99.90;;;;;;4889527;29;20082;-83
2022/11/05 09:10:39;;;;;;;6.15;3.67;;;11.30;99.90;;;;;;4900698;29;20063;-83
2022/11/05 09:13:07;;;;;;;5.72;3.80;;;11.30;99.90;;;;;;4881689;29;20503;-85
2022/11/05 09:15:44;;;;;;;6.90;4.10;;;11.30;99.90;;;;;;4884066;29;20566;-84
2022/11/05 09:18:13;;;;;;;8.35;5.05;;;11.40;99.90;;;;;;4886939;29;21456;-85
2022/11/05 09:20:40;;;;;;;8.55;4.20;;;11.40;99.90;;;;;;4894609;29;20107;-84
2022/11/05 09:23:08;;;;;;;7.95;4.18;;;11.50;99.90;;;;;;4887932;29;20049;-83
2022/11/05 09:25:36;;;;;;;8.40;5.32;;;11.30;99.90;;;;;;4893782;29;20057;-84
2022/11/05 09:28:07;;;;;;;8.38;5.43;;;11.40;99.90;;;;;;4892863;29;20521;-84
2022/11/05 09:30:34;;;;;;;6.30;4.43;;;11.50;99.90;;;;;;4888255;29;20676;-83
2022/11/05 09:33:01;;;;;;;5.30;4.40;;;11.50;99.90;;;;;;4891854;29;20053;-84
2022/11/05 09:35:27;;;;;;;6.70;4.57;;;11.60;99.90;;;;;;4891378;29;20073;-79
2022/11/05 09:37:54;;;;;;;5.50;4.25;;;11.70;99.90;;;;;;4882360;29;20545;-84
2022/11/05 09:40:30;;;;;;;7.68;4.20;;;11.70;99.90;;;;;;4888222;29;20135;-82
2022/11/05 09:42:58;;;;;;;5.93;3.90;;;11.70;99.90;;;;;;4902442;29;20089;-84
2022/11/05 09:45:27;;;;;;;5.30;3.85;;;11.70;99.90;;;;;;4888778;29;20514;-82
2022/11/05 09:47:59;;;;;;;5.68;3.90;;;11.80;99.90;;;;;;4896931;29;20057;-83
2022/11/05 09:50:35;;;;;;;9.65;4.63;;;11.80;99.90;;;;;;4878377;29;20425;-82
2022/11/05 09:53:03;;;;;;;6.57;4.45;;;11.80;99.90;;;;;;4890995;29;20490;-85
2022/11/05 09:55:39;;;;;;;12.32;4.78;;;11.80;99.90;;;;;;4887675;29;20077;-82
2022/11/05 09:58:45;;;;;;;5.85;4.47;;;11.70;99.90;;;;;;4867590;29;20110;-82
2022/11/05 10:01:22;;;;;;;6.70;4.60;;;11.70;99.90;;;;;;4806205;29;20067;-84
2022/11/05 10:03:54;;;;;;;9.82;4.43;;;11.60;99.90;;;;;;4874495;29;20065;-82
2022/11/05 10:06:24;;;;;;;6.05;4.70;;;11.50;99.90;;;;;;4881920;29;20056;-81
2022/11/05 10:09:13;;;;;;;9.67;5.27;;;11.40;99.90;;;;;;4878969;29;20417;-83
2022/11/05 10:11:48;;;;;;;7.88;5.35;;;11.30;99.90;;;;;;4875825;29;20829;-82
2022/11/05 10:14:32;;;;;;;12.52;7.05;;;11.20;99.90;;;;;;4880293;29;20045;-84
2022/11/05 10:17:29;;;;;;;8.90;5.70;;;11.10;99.90;;;;;;4874238;29;20594;-84
2022/11/05 10:20:15;;;;;;;9.80;5.43;;;11.00;99.90;;;;;;4881715;29;20052;-80
2022/11/05 10:22:41;;;;;;;11.27;6.05;;;11.00;99.90;;;;;;4887416;29;20052;-82
2022/11/05 10:25:18;;;;;;;7.80;5.68;;;10.90;99.90;;;;;;4883357;29;20554;-83
2022/11/05 10:27:50;;;;;;;8.07;5.65;;;10.90;99.90;;;;;;4888002;29;20053;-82
2022/11/05 10:30:18;;;;;;;7.53;4.70;;;11.00;99.90;;;;;;4890570;29;20542;-82
2022/11/05 10:32:46;;;;;;;5.35;4.00;;;11.00;99.90;;;;;;4879118;29;20120;-81
2022/11/05 10:35:17;;;;;;;7.72;4.25;;;11.00;99.90;;;;;;4883678;29;20057;-82
2022/11/05 10:41:40;;;;;;;5.93;4.10;;;11.30;99.90;;;;;;4884597;29;20085;-83
2022/11/05 10:44:21;;;;;;;6.88;3.80;;;11.50;99.90;;;;;;4891008;29;20053;-84
2022/11/05 10:47:19;;;;;;;6.57;3.97;;;11.80;99.90;;;;;;4895066;29;20199;-84
2022/11/05 10:49:59;;;;;;;4.68;3.60;;;12.10;99.90;;;;;;4887353;29;20067;-82
2022/11/05 10:52:32;;;;;;;4.60;3.50;;;12.30;99.90;;;;;;4887533;29;20406;-81
2022/11/05 10:55:02;;;;;;;4.57;3.25;;;12.50;99.90;;;;;;4895698;29;20092;-83
2022/11/05 10:57:33;;;;;;;5.65;3.42;;;12.60;99.90;;;;;;4887634;29;20061;-84
2022/11/05 11:00:15;;;;;;;5.60;3.15;;;12.70;99.90;;;;;;4869371;29;20073;-84
2022/11/05 11:02:45;;;;;;;5.78;3.15;;;12.90;99.90;;;;;;4885691;29;20115;-80
2022/11/05 11:05:26;;;;;;;5.72;2.33;;;13.00;99.90;;;;;;4881450;29;20068;-80
2022/11/05 11:08:11;;;;;;;4.07;1.70;;;12.90;99.90;;;;;;4892820;29;20521;-82
2022/11/05 11:10:46;;;;;;;3.83;1.80;;;12.70;99.90;;;;;;4888033;29;20057;-82
2022/11/05 11:13:27;;;;;;;7.78;1.80;;;12.60;99.90;;;;;;4890317;29;20049;-80
2022/11/05 11:16:11;;;;;;;2.47;1.63;;;12.50;99.90;;;;;;4886534;29;20049;-81
2022/11/05 11:18:40;;;;;;;4.10;1.83;;;12.40;99.90;;;;;;4871475;29;20060;-82
2022/11/05 11:21:18;;;;;;;2.50;1.80;;;12.40;99.90;;;;;;4876038;29;20475;-82
2022/11/05 11:24:05;;;;;;;2.65;2.05;;;12.30;99.90;;;;;;4876344;29;20472;-83
2022/11/05 11:26:37;;;;;;;3.75;1.90;;;12.40;99.90;;;;;;4882795;29;20055;-81
2022/11/05 11:29:11;;;;;;;2.85;1.98;;;12.40;99.90;;;;;;4876154;29;20055;-82
2022/11/05 11:31:39;;;;;;;3.83;2.05;;;12.30;99.90;;;;;;4873607;29;20099;-81
2022/11/05 11:34:40;;;;;;;2.88;1.73;;;12.40;99.90;;;;;;4875627;29;20064;-85
2022/11/05 11:37:19;;;;;;;2.10;1.63;;;12.40;99.90;;;;;;4889479;29;20061;-81
2022/11/05 11:39:50;;;;;;;4.20;2.00;;;12.40;99.90;;;;;;4891170;29;20067;-81
2022/11/05 11:42:34;;;;;;;5.45;1.65;;;12.40;99.90;;;;;;4891304;29;20088;-84
2022/11/05 11:45:18;;;;;;;4.32;1.70;;;12.40;99.90;;;;;;4890140;29;20041;-81
2022/11/05 11:54:20;;;;;;;4.07;2.72;;;12.50;99.90;;;;;;4899530;29;20067;-83
2022/11/05 11:56:50;;;;;;;4.45;3.20;;;12.40;99.90;;;;;;4906104;29;20048;-82
2022/11/05 11:59:23;;;;;;;6.15;2.88;;;12.30;99.90;;;;;;4913485;23;20148;-84
2022/11/05 12:02:22;;;;;;;6.63;3.17;;;12.30;99.90;;;;;;4901124;29;20409;-83
2022/11/05 12:04:57;;;;;;;4.10;2.30;;;12.30;99.90;;;;;;4904989;29;20044;-83
2022/11/05 12:07:41;;;;;;;6.82;2.65;;;12.40;99.90;;;;;;4899131;29;20048;-83
2022/11/05 12:10:35;;;;;;;3.08;2.40;;;12.40;99.90;;;;;;4890268;29;20128;-84
2022/11/05 12:13:20;;;;;;;6.03;2.60;;;12.30;99.90;;;;;;4889418;29;20084;-83
2022/11/05 12:15:51;;;;;;;4.35;2.25;;;12.40;99.90;;;;;;4875772;29;20044;-85
2022/11/05 12:43:15;;;;;;;6.22;2.17;;;12.70;99.90;;;;;;5064022;23;20100;-83
2022/11/05 12:46:01;;;;;;;5.82;2.63;;;12.80;99.90;;;;;;4897422;29;20052;-84
2022/11/05 12:48:50;;;;;;;5.60;2.30;;;12.80;99.90;;;;;;4888894;29;20052;-84
2022/11/05 12:51:26;;;;;;;3.10;1.77;;;12.90;99.90;;;;;;4885736;29;20044;-84
2022/11/05 12:54:21;;;;;;;4.82;2.03;;;12.90;99.90;;;;;;4874102;29;20053;-83
2022/11/05 12:57:00;;;;;;;3.28;1.48;;;13.10;99.90;;;;;;4877485;29;20069;-84
2022/11/05 12:59:54;;;;;;;4.10;1.52;;;13.10;99.90;;;;;;4903025;23;20045;-83
2022/11/05 13:02:36;;;;;;;3.75;1.73;;;13.10;99.90;;;;;;4898642;29;20077;-83
2022/11/05 13:05:28;;;;;;;3.38;2.20;;;13.20;99.90;;;;;;4898941;29;20147;-84
2022/11/05 13:08:28;;;;;;;5.20;2.10;;;13.20;99.90;;;;;;4900585;29;20063;-80
2022/11/05 13:11:00;;;;;;;;;;;13.20;99.90;;;;;;4901810;29;20116;-84
2022/11/05 13:13:38;;;;;;;4.97;2.10;;;13.20;99.90;;;;;;4903223;29;19934;-81
2022/11/05 13:16:23;;;;;;;3.20;1.98;;;13.20;99.90;;;;;;4914429;29;20060;-82
2022/11/05 13:19:03;;;;;;;4.38;1.98;;;13.30;99.90;;;;;;4901671;29;20139;-83
2022/11/05 13:21:30;;;;;;;4.28;2.25;;;13.30;99.90;;;;;;4903659;29;20063;-85
2022/11/05 13:24:17;;;;;;;5.93;2.28;;;13.30;99.90;;;;;;4902413;29;20061;-85
2022/11/05 13:27:00;;;;;;;5.78;1.70;;;13.30;99.90;;;;;;4900745;29;20052;-83
2022/11/05 13:29:52;;;;;;;3.78;1.40;;;13.30;99.90;;;;;;4903469;29;20108;-83
2022/11/05 13:32:28;;;;;;;3.80;2.17;;;13.20;99.90;;;;;;4896308;29;20045;-83
2022/11/05 13:34:55;;;;;;;3.45;1.83;;;13.10;99.90;;;;;;4909469;29;20040;-81
2022/11/05 13:40:15;;;;;;;2.90;1.55;;;13.00;99.90;;;;;;4901492;29;20040;-83
2022/11/05 13:42:45;;;;;;;4.50;2.30;;;13.00;99.90;;;;;;4903149;29;20055;-84
2022/11/05 13:45:27;;;;;;;4.68;2.30;;;13.00;99.90;;;;;;4901463;29;20060;-84
2022/11/05 13:48:31;;;;;;;4.78;1.98;;;12.90;99.90;;;;;;4900705;29;20062;-81
2022/11/05 13:51:46;;;;;;;4.32;2.10;;;12.90;99.90;;;;;;4899572;29;20143;-84
2022/11/05 13:54:35;;;;;;;8.18;4.43;;;12.80;99.90;;;;;;4834963;29;20064;-82
2022/11/05 13:57:27;;;;;;;11.15;5.82;;;12.70;99.90;;;;;;4898451;29;20139;-84
2022/11/05 14:00:25;;;;;;;6.88;3.65;;;12.60;99.90;;;;;;4898904;29;20060;-83
2022/11/05 14:02:58;;;;;;;5.13;3.17;;;12.50;99.90;;;;;;4921251;29;20052;-79
2022/11/05 14:05:30;;;;;;;5.88;2.85;;;12.50;99.90;;;;;;4903800;29;20049;-82
2022/11/05 14:08:06;;;;;;;4.43;2.72;;;12.40;99.90;;;;;;4911201;29;20049;-80
2022/11/05 14:10:38;;;;;;;3.90;2.45;;;12.30;99.90;;;;;;4909203;29;20051;-82
2022/11/05 14:13:20;;;;;;;5.38;2.53;;;12.30;99.90;;;;;;4904680;29;20104;-82
2022/11/05 14:16:04;;;;;;;8.00;2.92;;;12.20;99.90;;;;;;4904118;29;20068;-82
2022/11/05 14:18:45;;;;;;;10.30;6.00;;;12.20;99.90;;;;;;4905799;29;20120;-81
2022/11/05 14:21:24;;;;;;;4.65;2.38;;;12.10;99.90;;;;;;4909015;29;20108;-81
2022/11/05 14:23:56;;;;;;;7.40;2.30;;;12.10;99.90;;;;;;4909110;29;20052;-81
2022/11/05 14:26:28;;;;;;;3.67;1.95;;;12.10;99.90;;;;;;4906497;29;20057;-81
2022/11/05 14:28:57;;;;;;;3.88;2.45;;;12.10;99.90;;;;;;4908031;29;20045;-82
2022/11/05 14:31:46;;;;;;;3.17;2.00;;;12.00;99.90;;;;;;4906113;29;20084;-81
2022/11/05 14:34:47;;;;;;;2.10;1.65;;;12.00;99.90;;;;;;4902899;29;20056;-80
2022/11/05 14:37:51;;;;;;;4.18;2.58;;;12.00;99.90;;;;;;4901044;29;20528;-79
2022/11/05 14:40:21;;;;;;;6.10;2.17;;;11.90;99.90;;;;;;4895645;29;20203;-81
2022/11/05 14:42:54;;;;;;;3.67;2.22;;;11.90;99.90;;;;;;4906318;29;20066;-81
2022/11/05 14:45:51;;;;;;;3.20;2.20;;;11.90;99.90;;;;;;4905790;29;20051;-81
2022/11/05 14:48:34;;;;;;;3.78;1.80;;;12.00;99.90;;;;;;4905503;29;20140;-81
2022/11/05 14:51:01;;;;;;;2.35;1.42;;;11.90;99.90;;;;;;4916905;29;20416;-81
2022/11/05 14:58:14;;;;;;;1.50;1.20;;;11.90;99.90;;;;;;4887634;29;20044;-82
2022/11/05 15:00:55;;;;;;;2.22;1.50;;;12.00;99.90;;;;;;4882584;29;20056;-81
2022/11/05 15:03:59;;;;;;;2.58;1.30;;;11.90;99.90;;;;;;4906648;29;20056;-81
2022/11/05 15:06:34;;;;;;;2.75;1.52;;;11.90;99.90;;;;;;4906671;29;20084;-80
2022/11/05 15:09:12;;;;;;;2.30;1.73;;;11.90;99.90;;;;;;4906313;29;20060;-81
2022/11/05 15:11:59;;;;;;;4.25;2.80;;;11.90;99.90;;;;;;4909900;29;20470;-80
2022/11/05 15:15:30;;;;;;;;;;;;;;;;;;;;;
2022/11/05 15:19:06;;;;;;;;;;;;;;;;;;;;;
2022/11/05 15:22:46;;;;;;;2.78;1.98;;;11.70;99.90;;;;;;4905362;29;20063;-81
2022/11/05 15:25:20;;;;;;;6.15;2.85;;;11.70;99.90;;;;;;4902027;29;20053;-80
2022/11/05 15:27:56;;;;;;;19.25;11.30;;;11.70;99.90;;;;;;4903910;29;20116;-82
2022/11/05 15:30:23;;;;;;;9.30;5.95;;;11.70;99.90;;;;;;4902915;29;20127;-80
2022/11/05 15:32:51;;;;;;;23.25;13.13;;;11.70;99.90;;;;;;4903136;29;20053;-81
2022/11/05 15:35:25;;;;;;;21.15;13.20;;;11.70;99.90;;;;;;4906765;29;20052;-80
2022/11/05 15:37:55;;;;;;;16.50;10.68;;;11.60;99.90;;;;;;4903298;29;20052;-82
2022/11/05 15:40:40;;;;;;;12.85;8.38;;;11.60;99.90;;;;;;4905151;29;20075;-80
2022/11/05 15:43:16;;;;;;;4.93;3.92;;;11.60;99.90;;;;;;4905342;29;20076;-81
2022/11/05 15:45:57;;;;;;;5.57;2.85;;;11.50;99.90;;;;;;4905841;29;20538;-80
2022/11/05 15:48:24;;;;;;;3.38;2.30;;;11.50;99.90;;;;;;4906147;29;20112;-80
2022/11/05 15:50:51;;;;;;;4.45;2.33;;;11.50;99.90;;;;;;4907353;29;20063;-81
2022/11/05 15:53:33;;;;;;;4.43;2.05;;;11.50;99.90;;;;;;4905761;29;20045;-80
2022/11/05 15:56:31;;;;;;;8.50;4.57;;;11.50;99.90;;;;;;4903779;29;20050;-80
2022/11/05 15:59:01;;;;;;;8.43;4.55;;;11.40;99.90;;;;;;4914345;29;20056;-80
2022/11/05 16:01:34;;;;;;;13.57;3.23;;;11.40;99.90;;;;;;4905188;29;20135;-81
2022/11/05 16:04:15;;;;;;;3.83;2.20;;;11.30;99.90;;;;;;4907237;29;20846;-80
2022/11/05 16:06:44;;;;;;;4.68;3.25;;;11.30;99.90;;;;;;4905923;29;20053;-81
2022/11/05 16:09:28;;;;;;;7.93;4.60;;;11.30;99.90;;;;;;4906062;29;20108;-81
2022/11/05 16:12:18;;;;;;;12.18;6.70;;;11.20;99.90;;;;;;4905182;29;20132;-81
2022/11/05 16:15:18;;;;;;;7.53;5.68;;;11.20;99.90;;;;;;4904419;29;20056;-80
2022/11/05 16:17:54;;;;;;;5.22;2.85;;;11.10;99.90;;;;;;4905505;29;20073;-80
2022/11/05 16:20:26;;;;;;;2.60;2.08;;;11.10;99.90;;;;;;4904605;29;20457;-82
2022/11/05 16:22:58;;;;;;;2.38;1.98;;;11.10;99.90;;;;;;4905009;29;20048;-81
2022/11/05 16:25:34;;;;;;;3.75;2.63;;;11.00;99.90;;;;;;4905240;29;20135;-81
2022/11/05 16:28:01;;;;;;;8.15;3.95;;;11.00;99.90;;;;;;4903636;29;20088;-80
2022/11/05 16:30:28;;;;;;;5.80;3.92;;;11.00;99.90;;;;;;4902138;29;20060;-82
2022/11/05 16:33:03;;;;;;;6.57;3.83;;;10.90;99.90;;;;;;4906475;29;20056;-81
2022/11/05 16:35:30;;;;;;;21.95;8.48;;;10.90;99.90;;;;;;4902607;29;20059;-81
2022/11/05 16:38:00;;;;;;;15.93;5.75;;;10.90;99.90;;;;;;4916910;29;20060;-82
2022/11/05 16:40:28;;;;;;;;;;;10.80;99.90;;;;;;4906188;29;20048;-80
2022/11/05 16:43:17;;;;;;;7.88;3.55;;;10.70;99.90;;;;;;4902470;29;19927;-79
2022/11/05 16:45:44;;;;;;;4.72;2.58;;;10.60;99.90;;;;;;4905666;29;20096;-80
2022/11/05 16:48:12;;;;;;;3.97;2.70;;;10.60;99.90;;;;;;4897580;29;20425;-82
2022/11/05 16:50:40;;;;;;;4.85;2.88;;;10.50;99.90;;;;;;4899938;29;20052;-81
2022/11/05 16:53:07;;;;;;;5.63;3.35;;;10.40;99.90;;;;;;4898481;29;20059;-80
2022/11/05 16:55:36;;;;;;;5.13;3.90;;;10.40;99.90;;;;;;4906850;29;20493;-80
2022/11/05 16:58:03;;;;;;;11.60;5.22;;;10.30;99.90;;;;;;4904722;29;20073;-80
2022/11/05 17:00:30;;;;;;;13.35;5.03;;;10.30;99.90;;;;;;4900995;29;20053;-80
2022/11/05 17:02:56;;;;;;;8.65;4.47;;;10.20;99.90;;;;;;4904015;29;20135;-79
2022/11/05 17:05:25;;;;;;;9.68;3.80;;;10.10;99.90;;;;;;4900185;29;20120;-80
2022/11/05 17:07:53;;;;;;;7.57;4.82;;;10.10;99.90;;;;;;4915096;29;20561;-80
2022/11/05 17:10:21;;;;;;;7.10;4.50;;;10.10;99.90;;;;;;4915025;29;20048;-80
2022/11/05 17:12:48;;;;;;;10.10;6.10;;;10.00;99.90;;;;;;4904381;29;20117;-79
2022/11/05 17:15:34;;;;;;;10.98;5.28;;;10.00;99.90;;;;;;4903888;29;20443;-78
2022/11/05 17:18:02;;;;;;;7.57;5.45;;;9.90;99.90;;;;;;4905078;29;20056;-80
2022/11/05 17:20:36;;;;;;;10.30;5.60;;;9.90;99.90;;;;;;4907344;29;20589;-83
2022/11/05 17:23:09;;;;;;;9.77;6.28;;;9.80;99.90;;;;;;4916868;23;20052;-78
2022/11/05 17:25:37;;;;;;;9.35;5.28;;;9.80;99.90;;;;;;4889569;29;20438;-77
2022/11/05 17:28:04;;;;;;;9.02;3.63;;;9.80;99.90;;;;;;4885838;29;20123;-77
2022/11/05 17:30:31;;;;;;;6.55;3.65;;;9.70;99.90;;;;;;4893381;29;20127;-78
2022/11/05 17:32:58;;;;;;;4.90;3.58;;;9.70;99.90;;;;;;4894533;29;20052;-77
2022/11/05 17:35:25;;;;;;;6.30;3.50;;;9.70;99.90;;;;;;4890024;29;20049;-77
2022/11/05 17:37:52;;;;;;;7.63;4.85;;;9.70;99.90;;;;;;4891998;29;20048;-77
2022/11/05 17:40:23;;;;;;;12.70;6.97;;;9.60;99.90;;;;;;4891949;29;20071;-77
2022/11/05 17:42:50;;;;;;;15.02;6.95;;;9.60;99.90;;;;;;4892565;29;20516;-77
2022/11/05 17:45:17;;;;;;;11.05;7.45;;;9.60;99.90;;;;;;4894602;29;20056;-78
2022/11/05 17:47:44;;;;;;;12.60;7.07;;;9.60;99.90;;;;;;4895816;29;20053;-79
2022/11/05 17:50:14;;;;;;;9.63;5.63;;;9.60;99.90;;;;;;4897309;29;20052;-77
2022/11/05 17:52:41;;;;;;;8.85;5.50;;;9.50;99.90;;;;;;4894187;29;20052;-77
2022/11/05 17:55:15;;;;;;;11.68;6.03;;;9.50;99.90;;;;;;4893866;29;20044;-77
2022/11/05 17:57:46;;;;;;;13.13;6.13;;;9.50;99.90;;;;;;4893851;29;20566;-78
2022/11/05 18:00:16;;;;;;;12.95;6.03;;;9.30;99.90;;;;;;4892648;29;20427;-78
2022/11/05 18:02:47;;;;;;;11.80;6.00;;;9.30;99.90;;;;;;4892528;29;20064;-77
2022/11/05 18:05:15;;;;;;;31.23;14.77;;;9.30;99.90;;;;;;4896389;29;20140;-77
2022/11/05 18:07:42;;;;;;;32.60;14.15;;;9.30;99.90;;;;;;4898253;29;20104;-77
2022/11/05 18:10:09;;;;;;;21.02;9.85;;;9.30;99.90;;;;;;4896486;29;20104;-78
2022/11/05 18:12:37;;;;;;;18.33;9.15;;;9.20;99.90;;;;;;4893317;29;20049;-78
2022/11/05 18:15:04;;;;;;;13.77;8.02;;;9.20;99.90;;;;;;4893780;29;20048;-80
2022/11/05 18:17:31;;;;;;;15.88;8.32;;;9.20;99.90;;;;;;4896463;29;20938;-78
2022/11/05 18:19:58;;;;;;;16.10;8.38;;;9.20;99.90;;;;;;4891679;29;20053;-77
2022/11/05 18:22:25;;;;;;;14.38;8.25;;;9.10;99.90;;;;;;4893745;29;20060;-78
2022/11/05 18:24:53;;;;;;;13.45;7.80;;;9.10;99.90;;;;;;4894927;29;20087;-79
2022/11/05 18:27:23;;;;;;;15.65;8.00;;;9.10;99.90;;;;;;4897824;29;20054;-78
2022/11/05 18:29:50;;;;;;;14.18;7.47;;;9.00;99.90;;;;;;4895948;29;20091;-79
2022/11/05 18:32:16;;;;;;;12.70;7.10;;;9.00;99.90;;;;;;4895872;29;20053;-78
2022/11/05 18:34:43;;;;;;;11.65;7.80;;;9.00;99.90;;;;;;4892517;29;20112;-79
2022/11/05 18:37:10;;;;;;;10.02;6.40;;;9.00;99.90;;;;;;4893066;29;20419;-78
2022/11/05 18:39:37;;;;;;;9.85;5.93;;;9.00;99.90;;;;;;4897062;29;20124;-79
2022/11/05 18:42:04;;;;;;;9.77;6.13;;;9.00;99.90;;;;;;4897432;29;20052;-83
2022/11/05 18:44:32;;;;;;;15.07;6.22;;;9.00;99.90;;;;;;4898336;29;20140;-79
2022/11/05 18:47:05;;;;;;;11.80;6.95;;;9.00;99.90;;;;;;4892801;29;20479;-79
2022/11/05 18:49:32;;;;;;;9.95;6.75;;;9.00;99.90;;;;;;4892634;29;20083;-78
2022/11/05 18:51:59;;;;;;;14.52;7.75;;;9.00;99.90;;;;;;4894359;29;20524;-78
2022/11/05 18:54:26;;;;;;;17.23;8.98;;;8.90;99.90;;;;;;4895379;29;20108;-78
2022/11/05 18:56:53;;;;;;;15.45;8.32;;;9.00;99.90;;;;;;4895190;29;20183;-78
2022/11/05 18:59:20;;;;;;;11.07;6.80;;;8.80;99.90;;;;;;4895673;29;20140;-78
2022/11/05 19:02:04;;;;;;;10.18;6.50;;;8.80;99.90;;;;;;4896132;29;20052;-77
2022/11/05 19:04:31;;;;;;;15.30;9.07;;;8.80;99.90;;;;;;4890145;29;20134;-79
2022/11/05 19:06:58;;;;;;;16.35;11.13;;;8.80;99.90;;;;;;4895138;29;20136;-80
2022/11/05 19:09:31;;;;;;;16.52;11.10;;;8.80;99.90;;;;;;4893768;29;20070;-78
2022/11/05 19:11:58;;;;;;;16.10;10.25;;;8.70;99.90;;;;;;4892378;29;20049;-79
2022/11/05 19:14:24;;;;;;;14.30;9.35;;;8.70;99.90;;;;;;4893986;29;20052;-80
2022/11/05 19:16:51;;;;;;;13.77;10.35;;;8.70;99.90;;;;;;4897171;29;20049;-78
2022/11/05 19:19:18;;;;;;;13.35;7.57;;;8.70;99.90;;;;;;4898966;29;20143;-79
2022/11/05 19:21:45;;;;;;;14.60;8.73;;;8.60;99.90;;;;;;4897351;29;20052;-79
2022/11/05 19:24:11;;;;;;;15.82;7.55;;;8.60;99.90;;;;;;4895195;29;20418;-77
2022/11/05 19:26:43;;;;;;;12.40;7.20;;;8.60;99.90;;;;;;4898275;29;20052;-79
2022/11/05 19:29:10;;;;;;;7.13;5.03;;;8.50;99.90;;;;;;4893094;29;20059;-79
2022/11/05 19:31:37;;;;;;;9.40;5.03;;;8.50;99.90;;;;;;4894891;29;20059;-79
2022/11/05 19:34:04;;;;;;;8.80;5.40;;;8.40;99.90;;;;;;4894327;29;20052;-78
2022/11/05 19:36:31;;;;;;;16.08;6.47;;;8.40;99.90;;;;;;4896990;29;20071;-78
2022/11/05 19:39:01;;;;;;;9.15;6.03;;;8.40;99.90;;;;;;4892182;29;20064;-80
2022/11/05 19:41:28;;;;;;;11.27;6.25;;;8.30;99.90;;;;;;4896377;29;20058;-80
2022/11/05 19:43:56;;;;;;;13.57;6.22;;;8.30;99.90;;;;;;4895288;29;20055;-79
2022/11/05 19:46:24;;;;;;;13.20;7.35;;;8.30;99.90;;;;;;4897052;29;20045;-78
2022/11/05 19:48:51;;;;;;;13.07;6.47;;;8.20;99.90;;;;;;4897552;29;20053;-79
2022/11/05 19:51:26;;;;;;;11.77;6.93;;;8.20;99.90;;;;;;4897378;29;20126;-79
2022/11/05 19:53:54;;;;;;;11.77;6.20;;;8.20;99.90;;;;;;4897241;29;20396;-79
2022/11/05 19:56:24;;;;;;;11.52;5.70;;;8.10;99.90;;;;;;4896097;29;20048;-79
2022/11/05 19:58:52;;;;;;;9.10;4.80;;;8.10;99.90;;;;;;4893938;29;20090;-79
2022/11/05 20:01:21;;;;;;;7.55;3.50;;;8.10;99.90;;;;;;4892827;29;20049;-79
2022/11/05 20:03:48;;;;;;;7.57;4.28;;;8.10;99.90;;;;;;4894913;29;20052;-80
2022/11/05 20:06:19;;;;;;;8.82;4.10;;;8.10;99.90;;;;;;4893002;29;20049;-79
2022/11/05 20:08:46;;;;;;;6.60;3.58;;;8.10;99.90;;;;;;4894229;29;20053;-79
2022/11/05 20:11:38;;;;;;;12.23;3.45;;;8.00;99.90;;;;;;4896352;29;20052;-78
2022/11/05 20:14:05;;;;;;;5.97;2.85;;;8.00;99.90;;;;;;4897551;29;20056;-79
2022/11/05 20:16:37;;;;;;;7.57;3.10;;;8.00;99.90;;;;;;4891316;29;20529;-79
2022/11/05 20:19:05;;;;;;;7.78;3.72;;;8.00;99.90;;;;;;4892973;29;20063;-79
2022/11/05 20:21:34;;;;;;;7.65;2.92;;;7.90;99.90;;;;;;4891332;29;20438;-79
2022/11/05 20:24:01;;;;;;;4.72;2.53;;;7.90;99.90;;;;;;4888632;29;20438;-79
2022/11/05 20:26:28;;;;;;;4.55;2.42;;;7.90;99.90;;;;;;4893853;29;20056;-79
2022/11/05 20:28:55;;;;;;;5.50;2.88;;;7.90;99.90;;;;;;4895016;29;20093;-78
2022/11/05 20:31:22;;;;;;;3.92;2.63;;;8.00;99.90;;;;;;4887801;29;20045;-78
2022/11/05 20:33:50;;;;;;;4.65;2.78;;;7.90;99.90;;;;;;4893081;29;20502;-79
2022/11/05 20:36:20;;;;;;;6.43;2.10;;;7.80;99.90;;;;;;4891412;29;20048;-79
2022/11/05 20:38:54;;;;;;;6.38;2.72;;;7.70;99.90;;;;;;4891253;29;20113;-78
2022/11/05 20:41:21;;;;;;;8.98;3.13;;;7.70;99.90;;;;;;4889306;29;20055;-78
2022/11/05 20:43:48;;;;;;;5.47;2.80;;;7.60;99.90;;;;;;4894753;29;20063;-79
2022/11/05 20:46:17;;;;;;;10.23;3.92;;;7.60;99.90;;;;;;4893581;29;20062;-79
2022/11/05 20:48:44;;;;;;;11.00;5.13;;;7.50;99.90;;;;;;4894051;29;20051;-79
2022/11/05 20:51:14;;;;;;;8.90;4.93;;;7.60;99.90;;;;;;4893353;29;20062;-80
2022/11/05 20:53:42;;;;;;;7.28;3.63;;;7.60;99.90;;;;;;4894483;29;20044;-79
2022/11/05 20:56:16;;;;;;;7.47;5.07;;;7.60;99.90;;;;;;4893937;29;20053;-78
2022/11/05 20:58:43;;;;;;;9.13;4.72;;;7.60;99.90;;;;;;4892896;29;20053;-78
2022/11/05 21:01:11;;;;;;;11.40;4.70;;;7.60;99.90;;;;;;4893921;29;20053;-79
2022/11/05 21:03:38;;;;;;;8.25;4.53;;;7.50;99.90;;;;;;4894443;29;20577;-80
2022/11/05 21:06:06;;;;;;;8.65;4.40;;;7.50;99.90;;;;;;4892509;29;20411;-79
2022/11/05 21:08:33;;;;;;;10.55;5.55;;;7.50;99.90;;;;;;4893236;29;20078;-78
2022/11/05 21:11:00;;;;;;;10.95;5.57;;;7.50;99.90;;;;;;4897031;29;20140;-79
2022/11/05 21:13:28;;;;;;;14.43;6.93;;;7.50;99.90;;;;;;4894720;29;20515;-80
2022/11/05 21:15:57;;;;;;;16.70;9.40;;;7.40;99.90;;;;;;4896536;29;20055;-79
2022/11/05 21:18:27;;;;;;;20.40;12.23;;;7.50;99.90;;;;;;4898345;29;20051;-79
2022/11/05 21:20:54;;;;;;;19.05;10.73;;;7.40;99.90;;;;;;4902204;29;20058;-79
2022/11/05 21:23:21;;;;;;;15.85;9.07;;;7.40;99.90;;;;;;4892662;29;20056;-80
2022/11/05 21:25:48;;;;;;;15.60;8.85;;;7.40;99.90;;;;;;4896111;29;20052;-79
2022/11/05 21:28:15;;;;;;;24.30;9.10;;;7.40;99.90;;;;;;4900646;29;20111;-79
2022/11/05 21:30:44;;;;;;;15.00;6.85;;;7.40;99.90;;;;;;4896843;29;20422;-78
2022/11/05 21:33:13;;;;;;;11.18;5.55;;;7.40;99.90;;;;;;4893436;29;20052;-79
2022/11/05 21:35:42;;;;;;;15.07;9.40;;;7.40;99.90;;;;;;4894177;29;20685;-78